createdAt,value
2023-05-19T00:00:26.032Z,369.3077
2023-05-19T00:01:27.861Z,369.2308
2023-05-19T00:02:29.787Z,368.3077
2023-05-19T00:03:31.625Z,368.0000
2023-05-19T00:04:33.373Z,367.3077
2023-05-19T00:05:35.242Z,367.6154
2023-05-19T00:06:37.048Z,367.6923
2023-05-19T00:07:38.910Z,366.4615
2023-05-19T00:08:40.739Z,364.6923
2023-05-19T00:09:42.557Z,364.4615
2023-05-19T00:10:44.418Z,364.4615
2023-05-19T00:11:46.255Z,364.0769
2023-05-19T00:12:48.191Z,366.1538
2023-05-19T00:13:49.926Z,366.4615
2023-05-19T00:14:51.745Z,367.9231
2023-05-19T00:15:53.625Z,367.9231
2023-05-19T00:16:56.043Z,368.3846
2023-05-19T00:17:57.303Z,368.0000
2023-05-19T00:18:59.111Z,368.5385
2023-05-19T00:20:00.954Z,368.2308
2023-05-19T00:21:02.766Z,367.2308
2023-05-19T00:22:04.624Z,368.0000
2023-05-19T00:23:06.462Z,367.8462
2023-05-19T00:24:08.304Z,368.7692
2023-05-19T00:25:10.124Z,367.5385
2023-05-19T00:26:11.983Z,368.1538
2023-05-19T00:27:13.809Z,369.9231
2023-05-19T00:28:15.650Z,370.0000
2023-05-19T00:29:17.498Z,370.4615
2023-05-19T00:30:19.324Z,371.2308
2023-05-19T00:31:21.180Z,369.7692
2023-05-19T00:32:23.040Z,369.9231
2023-05-19T00:33:24.830Z,371.2308
2023-05-19T00:34:26.685Z,368.0000
2023-05-19T00:35:28.500Z,365.3077
2023-05-19T00:36:30.363Z,366.1538
2023-05-19T00:37:32.190Z,366.6923
2023-05-19T00:38:34.046Z,366.2308
2023-05-19T00:39:35.882Z,364.9231
2023-05-19T00:40:37.706Z,364.3846
2023-05-19T00:41:39.564Z,365.8462
2023-05-19T00:42:41.408Z,367.2308
2023-05-19T00:43:43.228Z,366.0769
2023-05-19T00:44:45.073Z,364.3077
2023-05-19T00:45:46.928Z,364.3846
2023-05-19T00:46:48.793Z,362.3846
2023-05-19T00:47:50.600Z,361.6923
2023-05-19T00:48:52.475Z,361.5385
2023-05-19T00:49:54.274Z,360.5385
2023-05-19T00:50:56.125Z,363.0769
2023-05-19T00:51:57.972Z,366.4615
2023-05-19T00:52:59.801Z,368.3077
2023-05-19T00:54:01.654Z,369.6923
2023-05-19T00:55:03.483Z,369.1538
2023-05-19T00:56:05.342Z,370.7692
2023-05-19T00:57:07.169Z,370.3846
2023-05-19T00:58:08.998Z,371.1538
2023-05-19T00:59:10.838Z,369.1538
2023-05-19T01:00:12.700Z,369.1538
2023-05-19T01:01:14.648Z,368.6154
2023-05-19T01:02:16.361Z,368.6923
2023-05-19T01:03:18.253Z,369.6154
2023-05-19T01:04:20.051Z,370.6923
2023-05-19T01:05:21.883Z,371.0769
2023-05-19T01:06:23.720Z,370.0769
2023-05-19T01:07:25.545Z,370.3077
2023-05-19T01:08:27.413Z,369.6154
2023-05-19T01:09:29.275Z,367.9231
2023-05-19T01:10:31.166Z,366.6923
2023-05-19T01:11:32.904Z,367.4615
2023-05-19T01:12:34.760Z,367.3846
2023-05-19T01:13:36.778Z,369.7692
2023-05-19T01:14:38.432Z,374.3846
2023-05-19T01:15:40.280Z,376.3846
2023-05-19T01:16:42.129Z,376.5385
2023-05-19T01:17:43.961Z,377.2308
2023-05-19T01:18:45.828Z,378.2308
2023-05-19T01:19:47.635Z,377.1538
2023-05-19T01:20:49.464Z,378.0000
2023-05-19T01:21:51.310Z,378.1538
2023-05-19T01:22:53.141Z,378.1538
2023-05-19T01:23:54.970Z,376.9231
2023-05-19T01:24:56.819Z,378.7692
2023-05-19T01:25:58.638Z,379.0000
2023-05-19T01:27:00.504Z,379.0769
2023-05-19T01:28:02.315Z,380.6923
2023-05-19T01:29:04.166Z,381.6923
2023-05-19T01:30:05.990Z,380.8462
2023-05-19T01:31:07.840Z,380.3077
2023-05-19T01:32:09.769Z,379.2308
2023-05-19T01:33:11.525Z,376.1538
2023-05-19T01:34:13.353Z,376.0769
2023-05-19T01:35:15.195Z,373.9231
2023-05-19T01:36:17.015Z,373.3846
2023-05-19T01:37:18.874Z,371.8462
2023-05-19T01:38:20.728Z,371.6923
2023-05-19T01:39:22.551Z,372.5385
2023-05-19T01:40:24.378Z,372.3077
2023-05-19T01:41:26.214Z,373.3846
2023-05-19T01:42:28.067Z,372.9231
2023-05-19T01:43:29.888Z,370.3077
2023-05-19T01:44:31.741Z,372.0769
2023-05-19T01:45:33.620Z,373.0000
2023-05-19T01:46:35.584Z,373.3077
2023-05-19T01:47:37.294Z,374.8462
2023-05-19T01:48:39.077Z,377.8462
2023-05-19T01:49:40.933Z,379.5385
2023-05-19T01:50:42.754Z,378.7692
2023-05-19T01:51:44.628Z,376.5385
2023-05-19T01:52:46.450Z,374.0769
2023-05-19T01:53:48.280Z,374.6154
2023-05-19T01:54:50.120Z,374.4615
2023-05-19T01:55:51.989Z,373.3077
2023-05-19T01:56:53.803Z,373.1538
2023-05-19T01:57:55.649Z,370.6154
2023-05-19T01:58:57.492Z,371.6154
2023-05-19T01:59:59.311Z,371.3846
2023-05-19T02:01:01.255Z,372.2308
2023-05-19T02:02:02.999Z,375.1538
2023-05-19T02:03:04.925Z,374.5385
2023-05-19T02:04:06.714Z,374.5385
2023-05-19T02:05:08.511Z,375.9231
2023-05-19T02:06:10.355Z,375.8462
2023-05-19T02:07:12.199Z,378.9231
2023-05-19T02:08:14.023Z,379.0769
2023-05-19T02:09:15.869Z,377.7692
2023-05-19T02:10:17.717Z,374.8462
2023-05-19T02:11:19.540Z,372.0769
2023-05-19T02:12:21.388Z,370.6923
2023-05-19T02:13:23.208Z,370.0000
2023-05-19T02:14:25.075Z,368.7692
2023-05-19T02:15:26.893Z,367.6923
2023-05-19T02:16:28.774Z,366.7692
2023-05-19T02:17:30.593Z,369.3846
2023-05-19T02:18:32.412Z,373.3077
2023-05-19T02:19:34.273Z,373.4615
2023-05-19T02:20:36.074Z,372.4615
2023-05-19T02:21:37.924Z,373.1538
2023-05-19T02:22:39.781Z,373.2308
2023-05-19T02:23:41.586Z,374.2308
2023-05-19T02:24:43.425Z,372.5385
2023-05-19T02:25:45.259Z,373.1538
2023-05-19T02:26:47.106Z,373.9231
2023-05-19T02:27:48.944Z,372.8462
2023-05-19T02:28:50.770Z,370.9231
2023-05-19T02:29:52.640Z,370.1538
2023-05-19T02:30:54.473Z,369.7692
2023-05-19T02:31:56.305Z,371.7692
2023-05-19T02:32:58.207Z,373.5385
2023-05-19T02:33:59.970Z,374.8462
2023-05-19T02:35:01.802Z,375.2308
2023-05-19T02:36:03.641Z,375.0769
2023-05-19T02:37:05.485Z,375.7692
2023-05-19T02:38:07.321Z,374.3846
2023-05-19T02:39:09.148Z,373.6923
2023-05-19T02:40:11.032Z,372.6923
2023-05-19T02:41:12.826Z,373.5385
2023-05-19T02:42:14.665Z,372.6923
2023-05-19T02:43:16.503Z,372.6923
2023-05-19T02:44:18.340Z,372.6923
2023-05-19T02:45:20.200Z,371.7692
2023-05-19T02:46:22.020Z,371.4615
2023-05-19T02:47:23.949Z,372.5385
2023-05-19T02:48:25.772Z,373.6923
2023-05-19T02:49:27.615Z,374.7692
2023-05-19T02:50:29.519Z,374.2308
2023-05-19T02:51:31.274Z,374.6923
2023-05-19T02:52:33.132Z,375.8462
2023-05-19T02:53:34.965Z,374.6923
2023-05-19T02:54:36.782Z,371.9231
2023-05-19T02:55:38.618Z,370.4615
2023-05-19T02:56:40.471Z,369.0769
2023-05-19T02:57:42.307Z,367.2308
2023-05-19T02:58:44.132Z,367.0000
2023-05-19T02:59:45.988Z,369.5385
2023-05-19T03:00:47.819Z,372.4615
2023-05-19T03:01:49.688Z,372.9231
2023-05-19T03:02:51.573Z,374.1538
2023-05-19T03:03:53.470Z,371.9231
2023-05-19T03:04:55.150Z,370.6923
2023-05-19T03:05:57.007Z,369.6154
2023-05-19T03:06:58.855Z,368.6154
2023-05-19T03:08:00.693Z,371.2308
2023-05-19T03:09:02.517Z,372.4615
2023-05-19T03:10:04.356Z,372.0769
2023-05-19T03:11:06.183Z,372.5385
2023-05-19T03:12:08.086Z,372.6154
2023-05-19T03:13:09.892Z,372.8462
2023-05-19T03:14:11.696Z,373.7692
2023-05-19T03:15:13.526Z,372.7692
2023-05-19T03:16:15.473Z,372.0769
2023-05-19T03:17:17.252Z,369.3077
2023-05-19T03:18:19.154Z,369.7692
2023-05-19T03:19:20.897Z,373.4615
2023-05-19T03:20:22.734Z,375.8462
2023-05-19T03:21:24.582Z,375.3077
2023-05-19T03:22:26.392Z,378.4615
2023-05-19T03:23:28.267Z,379.0000
2023-05-19T03:24:30.086Z,379.4615
2023-05-19T03:25:31.907Z,379.3077
2023-05-19T03:26:33.734Z,379.3077
2023-05-19T03:27:35.588Z,376.6923
2023-05-19T03:28:37.410Z,375.6923
2023-05-19T03:29:39.243Z,375.9231
2023-05-19T03:30:41.099Z,376.8462
2023-05-19T03:31:42.947Z,377.3077
2023-05-19T03:32:44.864Z,378.5385
2023-05-19T03:33:46.598Z,376.6923
2023-05-19T03:34:48.445Z,376.3077
2023-05-19T03:35:50.289Z,373.6923
2023-05-19T03:36:52.113Z,371.8462
2023-05-19T03:37:53.956Z,372.5385
2023-05-19T03:38:55.813Z,374.7692
2023-05-19T03:39:57.640Z,377.2308
2023-05-19T03:40:59.464Z,378.7692
2023-05-19T03:42:01.338Z,379.8462
2023-05-19T03:43:03.160Z,379.0000
2023-05-19T03:44:04.994Z,376.7692
2023-05-19T03:45:06.848Z,375.0000
2023-05-19T03:46:08.732Z,375.7692
2023-05-19T03:47:10.503Z,376.7692
2023-05-19T03:48:12.379Z,376.3846
2023-05-19T03:49:14.202Z,376.2308
2023-05-19T03:50:16.026Z,376.7692
2023-05-19T03:51:17.870Z,376.0769
2023-05-19T03:52:19.698Z,375.6923
2023-05-19T03:53:21.553Z,375.2308
2023-05-19T03:54:23.399Z,374.7692
2023-05-19T03:55:25.207Z,376.3846
2023-05-19T03:56:27.055Z,378.1538
2023-05-19T03:57:28.913Z,378.9231
2023-05-19T03:58:30.723Z,380.3846
2023-05-19T03:59:32.587Z,379.1538
2023-05-19T04:00:34.636Z,380.8462
2023-05-19T04:01:36.241Z,380.2308
2023-05-19T04:02:38.328Z,378.3077
2023-05-19T04:03:39.961Z,379.8462
2023-05-19T04:04:41.818Z,378.0769
2023-05-19T04:05:43.612Z,374.8462
2023-05-19T04:06:45.446Z,374.2308
2023-05-19T04:07:47.277Z,373.3077
2023-05-19T04:08:49.117Z,372.9231
2023-05-19T04:09:50.982Z,374.5385
2023-05-19T04:10:52.811Z,373.4615
2023-05-19T04:11:54.633Z,374.6154
2023-05-19T04:12:56.495Z,373.8462
2023-05-19T04:13:58.352Z,372.8462
2023-05-19T04:15:00.202Z,372.6154
2023-05-19T04:16:02.076Z,376.3077
2023-05-19T04:17:03.864Z,378.0769
2023-05-19T04:18:05.706Z,379.3077
2023-05-19T04:19:07.552Z,379.3846
2023-05-19T04:20:09.376Z,379.6923
2023-05-19T04:21:11.203Z,379.3846
2023-05-19T04:22:13.043Z,378.5385
2023-05-19T04:23:14.886Z,378.9231
2023-05-19T04:24:16.741Z,376.9231
2023-05-19T04:25:18.576Z,376.3846
2023-05-19T04:26:20.420Z,377.0769
2023-05-19T04:27:22.241Z,377.0769
2023-05-19T04:28:24.092Z,375.9231
2023-05-19T04:29:25.966Z,377.2308
2023-05-19T04:30:27.790Z,379.0000
2023-05-19T04:31:29.636Z,377.6923
2023-05-19T04:32:31.483Z,377.3077
2023-05-19T04:33:33.301Z,376.4615
2023-05-19T04:34:35.177Z,378.5385
2023-05-19T04:35:36.974Z,379.3846
2023-05-19T04:36:38.825Z,381.3077
2023-05-19T04:37:40.642Z,380.8462
2023-05-19T04:38:42.501Z,380.3846
2023-05-19T04:39:44.339Z,382.3077
2023-05-19T04:40:46.177Z,381.2308
2023-05-19T04:41:48.008Z,381.6923
2023-05-19T04:42:49.869Z,386.1538
2023-05-19T04:43:51.687Z,386.5385
2023-05-19T04:44:53.523Z,386.0769
2023-05-19T04:45:55.379Z,386.0000
2023-05-19T04:46:57.260Z,381.6923
2023-05-19T04:47:59.099Z,376.3846
2023-05-19T04:49:00.890Z,375.9231
2023-05-19T04:50:02.735Z,378.7692
2023-05-19T04:51:04.571Z,380.7692
2023-05-19T04:52:06.427Z,383.1538
2023-05-19T04:53:08.266Z,384.1538
2023-05-19T04:54:10.216Z,385.0769
2023-05-19T04:55:11.955Z,384.5385
2023-05-19T04:56:13.775Z,381.3846
2023-05-19T04:57:15.626Z,380.5385
2023-05-19T04:58:17.472Z,377.6154
2023-05-19T04:59:19.300Z,376.2308
2023-05-19T05:00:21.137Z,378.8462
2023-05-19T05:01:23.018Z,380.3077
2023-05-19T05:02:24.958Z,380.0000
2023-05-19T05:03:26.770Z,381.0769
2023-05-19T05:04:28.510Z,380.9231
2023-05-19T05:05:30.335Z,380.3077
2023-05-19T05:06:32.173Z,381.0769
2023-05-19T05:07:34.024Z,379.6154
2023-05-19T05:08:35.866Z,379.0000
2023-05-19T05:09:37.706Z,379.0769
2023-05-19T05:10:39.548Z,378.3077
2023-05-19T05:11:41.395Z,375.8462
2023-05-19T05:12:43.232Z,373.4615
2023-05-19T05:13:45.082Z,372.9231
2023-05-19T05:14:46.968Z,373.0769
2023-05-19T05:15:48.774Z,376.2308
2023-05-19T05:16:50.708Z,376.6923
2023-05-19T05:17:52.453Z,376.3077
2023-05-19T05:18:54.344Z,376.0000
2023-05-19T05:19:56.116Z,376.0000
2023-05-19T05:20:57.940Z,377.7692
2023-05-19T05:21:59.773Z,377.7692
2023-05-19T05:23:01.603Z,378.6923
2023-05-19T05:24:03.463Z,378.1538
2023-05-19T05:25:05.302Z,379.2308
2023-05-19T05:26:07.135Z,380.4615
2023-05-19T05:27:08.955Z,380.3077
2023-05-19T05:28:10.793Z,382.4615
2023-05-19T05:29:12.623Z,384.3846
2023-05-19T05:30:14.590Z,383.6154
2023-05-19T05:31:16.312Z,383.3077
2023-05-19T05:32:18.180Z,381.7692
2023-05-19T05:33:20.074Z,381.8462
2023-05-19T05:34:21.807Z,385.5385
2023-05-19T05:35:23.703Z,386.3846
2023-05-19T05:36:25.501Z,381.8462
2023-05-19T05:37:27.317Z,381.6154
2023-05-19T05:38:29.145Z,381.6154
2023-05-19T05:39:30.996Z,381.6154
2023-05-19T05:40:32.845Z,384.5385
2023-05-19T05:41:34.671Z,383.3077
2023-05-19T05:42:36.509Z,387.0000
2023-05-19T05:43:38.331Z,385.3077
2023-05-19T05:44:40.169Z,383.2308
2023-05-19T05:45:42.057Z,380.9231
2023-05-19T05:46:43.842Z,381.0000
2023-05-19T05:47:45.701Z,383.2308
2023-05-19T05:48:47.538Z,384.8462
2023-05-19T05:49:50.585Z,386.5385
2023-05-19T05:50:51.201Z,386.7692
2023-05-19T05:52:05.034Z,386.4615
2023-05-19T05:52:55.879Z,383.6923
2023-05-19T05:53:56.696Z,384.9231
2023-05-19T05:54:58.536Z,386.6154
2023-05-19T05:56:00.377Z,386.3077
2023-05-19T05:57:02.220Z,385.6154
2023-05-19T05:58:04.067Z,383.6923
2023-05-19T05:59:05.896Z,383.5385
2023-05-19T06:00:07.728Z,384.1538
2023-05-19T06:01:09.561Z,381.0769
2023-05-19T06:02:11.468Z,378.9231
2023-05-19T06:03:13.347Z,379.1538
2023-05-19T06:04:15.095Z,380.2308
2023-05-19T06:05:16.978Z,379.5385
2023-05-19T06:06:18.781Z,379.2308
2023-05-19T06:07:20.611Z,378.0769
2023-05-19T06:08:22.437Z,377.8462
2023-05-19T06:09:24.274Z,377.6923
2023-05-19T06:10:26.144Z,377.6154
2023-05-19T06:11:27.995Z,378.0769
2023-05-19T06:12:29.817Z,377.8462
2023-05-19T06:13:31.637Z,375.4615
2023-05-19T06:14:33.490Z,374.8462
2023-05-19T06:15:35.357Z,374.7692
2023-05-19T06:16:37.247Z,371.4615
2023-05-19T06:17:39.036Z,371.6923
2023-05-19T06:18:40.864Z,370.4615
2023-05-19T06:19:42.684Z,368.8462
2023-05-19T06:20:44.546Z,368.3077
2023-05-19T06:21:46.374Z,368.3846
2023-05-19T06:22:48.224Z,371.2308
2023-05-19T06:23:50.033Z,374.0000
2023-05-19T06:24:51.874Z,371.3077
2023-05-19T06:25:53.724Z,369.8462
2023-05-19T06:26:55.549Z,367.4615
2023-05-19T06:27:57.401Z,367.6923
2023-05-19T06:28:59.250Z,368.6923
2023-05-19T06:30:01.096Z,370.6154
2023-05-19T06:31:02.955Z,370.0000
2023-05-19T06:32:04.780Z,369.1538
2023-05-19T06:33:06.725Z,369.7692
2023-05-19T06:34:08.433Z,368.3077
2023-05-19T06:35:10.263Z,370.0000
2023-05-19T06:36:12.110Z,371.1538
2023-05-19T06:37:13.952Z,371.3846
2023-05-19T06:38:15.798Z,371.2308
2023-05-19T06:39:17.614Z,373.8462
2023-05-19T06:40:19.453Z,373.0769
2023-05-19T06:41:21.304Z,372.0769
2023-05-19T06:42:23.153Z,370.2308
2023-05-19T06:43:24.972Z,368.2308
2023-05-19T06:44:26.818Z,366.3077
2023-05-19T06:45:28.651Z,366.8462
2023-05-19T06:46:30.506Z,365.8462
2023-05-19T06:47:32.358Z,365.9231
2023-05-19T06:48:34.166Z,367.1538
2023-05-19T06:49:36.008Z,370.3077
2023-05-19T06:50:37.938Z,371.9231
2023-05-19T06:51:39.753Z,372.3846
2023-05-19T06:52:41.578Z,374.5385
2023-05-19T06:53:43.414Z,373.6154
2023-05-19T06:54:45.276Z,372.6923
2023-05-19T06:55:57.989Z,373.7692
2023-05-19T06:56:49.942Z,377.9231
2023-05-19T06:57:50.758Z,381.4615
2023-05-19T06:58:52.613Z,381.0000
2023-05-19T06:59:54.458Z,379.6923
2023-05-19T07:00:56.290Z,376.2308
2023-05-19T07:01:58.136Z,371.9231
2023-05-19T07:03:00.244Z,372.8462
2023-05-19T07:04:01.957Z,374.8462
2023-05-19T07:05:03.667Z,377.0000
2023-05-19T07:06:07.867Z,374.2308
2023-05-19T07:07:07.316Z,374.4615
2023-05-19T07:08:09.168Z,376.8462
2023-05-19T07:09:11.016Z,379.1538
2023-05-19T07:10:12.859Z,382.6923
2023-05-19T07:11:14.690Z,382.0769
2023-05-19T07:12:16.523Z,381.0769
2023-05-19T07:13:18.362Z,380.6923
2023-05-19T07:14:20.221Z,379.8462
2023-05-19T07:15:22.064Z,379.5385
2023-05-19T07:16:23.940Z,379.5385
2023-05-19T07:17:25.775Z,379.4615
2023-05-19T07:18:27.613Z,378.6154
2023-05-19T07:19:29.484Z,376.9231
2023-05-19T07:20:31.378Z,375.6154
2023-05-19T07:21:33.073Z,377.8462
2023-05-19T07:22:34.937Z,379.0000
2023-05-19T07:23:36.772Z,378.0769
2023-05-19T07:24:38.618Z,377.1538
2023-05-19T07:25:40.437Z,375.7692
2023-05-19T07:26:42.282Z,375.0000
2023-05-19T07:27:44.098Z,375.2308
2023-05-19T07:28:45.934Z,374.1538
2023-05-19T07:29:47.799Z,372.0000
2023-05-19T07:30:49.632Z,370.6154
2023-05-19T07:31:51.492Z,374.0769
2023-05-19T07:32:53.351Z,377.1538
2023-05-19T07:33:55.150Z,377.0769
2023-05-19T07:34:56.978Z,377.3077
2023-05-19T07:35:58.843Z,381.8462
2023-05-19T07:37:00.687Z,380.5385
2023-05-19T07:38:02.516Z,378.9231
2023-05-19T07:39:04.374Z,377.8462
2023-05-19T07:40:06.169Z,378.4615
2023-05-19T07:41:08.034Z,376.5385
2023-05-19T07:42:09.887Z,375.0769
2023-05-19T07:43:11.700Z,375.5385
2023-05-19T07:44:13.527Z,373.6154
2023-05-19T07:45:15.381Z,375.0769
2023-05-19T07:46:17.270Z,371.9231
2023-05-19T07:47:19.056Z,368.4615
2023-05-19T07:48:20.896Z,367.5385
2023-05-19T07:49:22.726Z,367.2308
2023-05-19T07:50:24.608Z,365.2308
2023-05-19T07:51:26.414Z,365.3846
2023-05-19T07:52:28.237Z,366.3846
2023-05-19T07:53:30.098Z,368.3077
2023-05-19T07:54:31.930Z,367.0769
2023-05-19T07:55:33.777Z,366.7692
2023-05-19T07:56:35.609Z,366.9231
2023-05-19T07:57:37.440Z,368.3077
2023-05-19T07:58:39.278Z,369.0769
2023-05-19T07:59:41.115Z,369.6923
2023-05-19T08:00:42.978Z,370.3077
2023-05-19T08:01:44.806Z,368.6923
2023-05-19T08:02:46.687Z,370.2308
2023-05-19T08:03:48.571Z,367.8462
2023-05-19T08:04:50.457Z,365.3077
2023-05-19T08:05:52.155Z,365.9231
2023-05-19T08:06:54.004Z,366.5385
2023-05-19T08:07:55.836Z,367.0769
2023-05-19T08:08:57.659Z,367.8462
2023-05-19T08:09:59.509Z,367.5385
2023-05-19T08:11:01.340Z,367.8462
2023-05-19T08:12:03.199Z,369.8462
2023-05-19T08:13:05.029Z,372.7692
2023-05-19T08:14:06.854Z,373.2308
2023-05-19T08:15:08.694Z,374.7692
2023-05-19T08:16:10.585Z,375.1538
2023-05-19T08:17:12.390Z,375.9231
2023-05-19T08:18:14.273Z,376.7692
2023-05-19T08:19:16.146Z,378.3846
2023-05-19T08:20:17.890Z,379.4615
2023-05-19T08:21:19.737Z,377.8462
2023-05-19T08:22:21.581Z,377.0769
2023-05-19T08:23:23.416Z,374.0769
2023-05-19T08:24:25.255Z,370.3077
2023-05-19T08:25:27.100Z,367.2308
2023-05-19T08:26:28.915Z,367.7692
2023-05-19T08:27:30.773Z,367.0769
2023-05-19T08:28:32.634Z,368.0769
2023-05-19T08:29:34.426Z,369.1538
2023-05-19T08:30:36.266Z,371.1538
2023-05-19T08:31:38.246Z,373.1538
2023-05-19T08:32:39.960Z,372.4615
2023-05-19T08:33:41.764Z,373.4615
2023-05-19T08:34:43.610Z,373.8462
2023-05-19T08:35:45.434Z,374.2308
2023-05-19T08:36:47.273Z,373.6154
2023-05-19T08:37:49.125Z,372.8462
2023-05-19T08:38:50.940Z,370.3846
2023-05-19T08:39:52.778Z,368.3077
2023-05-19T08:40:54.621Z,368.4615
2023-05-19T08:41:56.452Z,367.8462
2023-05-19T08:42:58.297Z,367.0769
2023-05-19T08:44:00.154Z,370.6154
2023-05-19T08:45:01.970Z,372.7692
2023-05-19T08:46:03.795Z,370.3077
2023-05-19T08:47:05.671Z,367.3077
2023-05-19T08:48:07.481Z,368.0000
2023-05-19T08:49:09.293Z,370.4615
2023-05-19T08:50:11.164Z,371.7692
2023-05-19T08:51:12.973Z,370.0000
2023-05-19T08:52:14.793Z,371.4615
2023-05-19T08:53:31.950Z,372.6923
2023-05-19T08:54:20.637Z,370.6923
2023-05-19T08:55:21.204Z,366.1538
2023-05-19T08:56:22.757Z,367.1538
2023-05-19T08:57:24.332Z,368.3077
2023-05-19T08:58:26.855Z,366.6923
2023-05-19T08:59:27.666Z,364.1538
2023-05-19T09:00:29.606Z,366.3846
2023-05-19T09:01:31.421Z,367.0000
2023-05-19T09:02:33.225Z,366.6923
2023-05-19T09:03:35.039Z,364.3077
2023-05-19T09:04:36.986Z,361.0000
2023-05-19T09:05:38.701Z,361.0769
2023-05-19T09:06:40.490Z,360.0769
2023-05-19T09:07:42.330Z,360.4615
2023-05-19T09:08:44.180Z,363.0769
2023-05-19T09:09:46.028Z,361.9231
2023-05-19T09:10:47.840Z,359.8462
2023-05-19T09:11:49.684Z,358.0000
2023-05-19T09:12:51.531Z,355.0769
2023-05-19T09:13:53.346Z,356.3846
2023-05-19T09:14:55.199Z,358.1538
2023-05-19T09:15:57.035Z,360.8462
2023-05-19T09:16:58.901Z,364.2308
2023-05-19T09:18:00.752Z,365.4615
2023-05-19T09:19:02.569Z,363.6154
2023-05-19T09:20:04.365Z,361.9231
2023-05-19T09:21:06.202Z,360.3077
2023-05-19T09:22:08.052Z,361.3846
2023-05-19T09:23:09.885Z,360.9231
2023-05-19T09:24:11.711Z,360.1538
2023-05-19T09:25:13.556Z,360.8462
2023-05-19T09:26:15.400Z,361.3846
2023-05-19T09:27:17.232Z,362.9231
2023-05-19T09:28:19.058Z,362.6154
2023-05-19T09:29:20.910Z,361.4615
2023-05-19T09:30:22.748Z,362.3077
2023-05-19T09:31:24.615Z,363.3077
2023-05-19T09:32:26.552Z,361.6923
2023-05-19T09:33:28.249Z,361.2308
2023-05-19T09:34:30.080Z,361.3846
2023-05-19T09:35:32.143Z,361.4615
2023-05-19T09:36:33.771Z,362.5385
2023-05-19T09:37:35.607Z,358.0769
2023-05-19T09:38:37.440Z,359.3846
2023-05-19T09:39:39.274Z,360.0000
2023-05-19T09:40:41.121Z,361.8462
2023-05-19T09:41:42.957Z,361.8462
2023-05-19T09:42:44.783Z,361.8462
2023-05-19T09:43:46.622Z,361.7692
2023-05-19T09:44:48.487Z,361.5385
2023-05-19T09:45:50.333Z,362.2308
2023-05-19T09:46:52.139Z,362.0769
2023-05-19T09:47:54.024Z,362.9231
2023-05-19T09:48:55.830Z,363.3077
2023-05-19T09:49:57.675Z,361.0000
2023-05-19T09:50:59.519Z,360.7692
2023-05-19T09:52:01.330Z,359.8462
2023-05-19T09:53:03.166Z,358.2308
2023-05-19T09:54:05.003Z,357.1538
2023-05-19T09:55:07.262Z,359.2308
2023-05-19T09:56:08.761Z,359.6154
2023-05-19T09:57:10.531Z,359.3077
2023-05-19T09:58:12.862Z,361.7692
2023-05-19T09:59:14.205Z,363.4615
2023-05-19T10:00:16.024Z,363.8462
2023-05-19T10:01:17.865Z,361.8462
2023-05-19T10:02:19.695Z,360.1538
2023-05-19T10:03:21.557Z,359.8462
2023-05-19T10:04:23.469Z,362.7692
2023-05-19T10:05:25.246Z,363.1538
2023-05-19T10:06:27.051Z,365.5385
2023-05-19T10:07:28.889Z,366.5385
2023-05-19T10:08:31.046Z,365.6923
2023-05-19T10:09:32.575Z,365.6154
2023-05-19T10:10:34.435Z,366.5385
2023-05-19T10:11:36.231Z,365.6923
2023-05-19T10:12:38.070Z,365.8462
2023-05-19T10:13:39.908Z,363.0769
2023-05-19T10:14:41.760Z,361.9231
2023-05-19T10:15:57.309Z,361.1538
2023-05-19T10:16:46.477Z,361.2308
2023-05-19T10:17:47.293Z,360.5385
2023-05-19T10:18:49.136Z,361.6923
2023-05-19T10:19:50.918Z,366.3077
2023-05-19T10:20:52.759Z,365.6154
2023-05-19T10:21:54.603Z,364.3077
2023-05-19T10:22:56.454Z,364.5385
2023-05-19T10:23:58.326Z,364.2308
2023-05-19T10:25:00.179Z,362.7692
2023-05-19T10:26:01.959Z,362.8462
2023-05-19T10:27:03.786Z,361.4615
2023-05-19T10:28:05.665Z,361.5385
2023-05-19T10:29:07.474Z,361.5385
2023-05-19T10:30:11.507Z,365.3077
2023-05-19T10:31:11.142Z,367.1538
2023-05-19T10:32:13.006Z,366.0769
2023-05-19T10:33:14.918Z,363.7692
2023-05-19T10:34:16.656Z,362.9231
2023-05-19T10:35:18.486Z,362.6923
2023-05-19T10:36:20.335Z,362.7692
2023-05-19T10:37:22.164Z,365.5385
2023-05-19T10:38:24.003Z,362.2308
2023-05-19T10:39:25.828Z,361.2308
2023-05-19T10:40:27.670Z,363.4615
2023-05-19T10:41:29.518Z,362.6923
2023-05-19T10:42:31.348Z,363.1538
2023-05-19T10:43:33.210Z,362.7692
2023-05-19T10:44:35.009Z,363.8462
2023-05-19T10:45:36.844Z,364.3846
2023-05-19T10:46:38.748Z,364.3077
2023-05-19T10:47:40.589Z,364.3077
2023-05-19T10:48:42.371Z,362.3077
2023-05-19T10:49:44.208Z,362.8462
2023-05-19T10:50:46.031Z,363.2308
2023-05-19T10:51:47.872Z,362.8462
2023-05-19T10:52:49.709Z,364.9231
2023-05-19T10:53:51.631Z,365.1538
2023-05-19T10:54:53.471Z,365.5385
2023-05-19T10:55:55.286Z,363.9231
2023-05-19T10:56:57.125Z,365.4615
2023-05-19T10:57:58.960Z,364.6923
2023-05-19T10:59:00.822Z,366.3846
2023-05-19T11:00:02.667Z,364.5385
2023-05-19T11:01:04.487Z,365.6154
2023-05-19T11:02:06.370Z,367.3846
2023-05-19T11:03:08.270Z,367.0000
2023-05-19T11:04:10.062Z,366.1538
2023-05-19T11:05:11.846Z,363.7692
2023-05-19T11:06:13.666Z,363.7692
2023-05-19T11:07:15.508Z,362.6154
2023-05-19T11:08:17.367Z,363.2308
2023-05-19T11:09:22.486Z,362.6923
2023-05-19T11:10:22.016Z,361.0000
2023-05-19T11:11:23.398Z,360.0000
2023-05-19T11:12:25.211Z,360.3846
2023-05-19T11:13:28.448Z,360.0769
2023-05-19T11:14:28.403Z,359.3077
2023-05-19T11:15:30.290Z,358.3077
2023-05-19T11:16:32.108Z,357.8462
2023-05-19T11:17:35.074Z,357.3077
2023-05-19T11:18:35.766Z,357.3846
2023-05-19T11:19:37.604Z,359.7692
2023-05-19T11:20:39.531Z,361.7692
2023-05-19T11:21:41.263Z,360.5385
2023-05-19T11:22:43.109Z,359.8462
2023-05-19T11:23:45.045Z,358.3846
2023-05-19T11:24:46.789Z,359.6154
2023-05-19T11:25:48.632Z,358.3846
2023-05-19T11:26:50.456Z,359.6154
2023-05-19T11:27:52.312Z,361.0000
2023-05-19T11:28:54.138Z,362.1538
2023-05-19T11:29:55.981Z,363.0000
2023-05-19T11:30:57.986Z,363.3077
2023-05-19T11:31:59.683Z,364.6154
2023-05-19T11:33:01.551Z,364.4615
2023-05-19T11:34:03.342Z,365.1538
2023-05-19T11:35:05.167Z,365.1538
2023-05-19T11:36:07.020Z,367.3077
2023-05-19T11:37:08.852Z,368.1538
2023-05-19T11:38:10.683Z,368.3077
2023-05-19T11:39:12.511Z,367.6923
2023-05-19T11:40:14.347Z,365.9231
2023-05-19T11:41:17.308Z,362.6154
2023-05-19T11:42:18.035Z,361.2308
2023-05-19T11:43:19.874Z,359.6923
2023-05-19T11:44:21.710Z,358.9231
2023-05-19T11:45:23.570Z,358.1538
2023-05-19T11:46:25.430Z,359.3077
2023-05-19T11:47:27.239Z,359.0000
2023-05-19T11:48:29.152Z,360.9231
2023-05-19T11:49:30.900Z,361.9231
2023-05-19T11:50:32.746Z,364.3077
2023-05-19T11:51:34.573Z,364.7692
2023-05-19T11:52:36.416Z,366.6923
2023-05-19T11:53:38.255Z,367.1538
2023-05-19T11:54:40.121Z,366.7692
2023-05-19T11:55:41.961Z,369.7692
2023-05-19T11:56:43.787Z,368.7692
2023-05-19T11:57:56.086Z,366.7692
2023-05-19T11:58:48.455Z,366.3846
2023-05-19T11:59:49.282Z,365.5385
2023-05-19T12:00:51.151Z,366.5385
2023-05-19T12:01:52.971Z,367.0000
2023-05-19T12:02:54.888Z,367.8462
2023-05-19T12:03:56.762Z,366.8462
2023-05-19T12:04:58.533Z,365.6923
2023-05-19T12:06:00.341Z,364.6154